sensor_id;sensor_type;location;lat;lon;timestamp;P1;durP1;ratioP1;P2;durP2;ratioP2
42662;SDS011;44330;51.360;6.686;2022-12-18T00:03:51;18.00;;;7.73;;
42662;SDS011;44330;51.360;6.686;2022-12-18T00:06:17;19.77;;;7.87;;
42662;SDS011;44330;51.360;6.686;2022-12-18T00:08:43;14.37;;;6.83;;
42662;SDS011;44330;51.360;6.686;2022-12-18T00:11:14;16.73;;;7.37;;
42662;SDS011;44330;51.360;6.686;2022-12-18T00:13:41;19.30;;;8.20;;
42662;SDS011;44330;51.360;6.686;2022-12-18T00:16:07;17.40;;;7.37;;
42662;SDS011;44330;51.360;6.686;2022-12-18T00:18:36;18.13;;;7.40;;
42662;SDS011;44330;51.360;6.686;2022-12-18T00:21:02;16.77;;;7.80;;
42662;SDS011;44330;51.360;6.686;2022-12-18T00:23:30;15.35;;;6.70;;
42662;SDS011;44330;51.360;6.686;2022-12-18T00:26:00;19.03;;;8.03;;
42662;SDS011;44330;51.360;6.686;2022-12-18T00:28:26;16.67;;;7.37;;
42662;SDS011;44330;51.360;6.686;2022-12-18T00:30:59;19.73;;;8.07;;
42662;SDS011;44330;51.360;6.686;2022-12-18T00:33:34;16.03;;;7.47;;
42662;SDS011;44330;51.360;6.686;2022-12-18T00:36:05;20.53;;;8.83;;
42662;SDS011;44330;51.360;6.686;2022-12-18T00:38:36;19.90;;;8.40;;
42662;SDS011;44330;51.360;6.686;2022-12-18T00:41:02;20.87;;;8.47;;
42662;SDS011;44330;51.360;6.686;2022-12-18T00:43:28;18.43;;;7.80;;
42662;SDS011;44330;51.360;6.686;2022-12-18T00:45:54;22.03;;;7.60;;
42662;SDS011;44330;51.360;6.686;2022-12-18T00:48:23;16.93;;;8.80;;
42662;SDS011;44330;51.360;6.686;2022-12-18T00:50:49;19.48;;;7.32;;
42662;SDS011;44330;51.360;6.686;2022-12-18T00:53:15;20.30;;;7.50;;
42662;SDS011;44330;51.360;6.686;2022-12-18T00:55:40;18.33;;;8.07;;
42662;SDS011;44330;51.360;6.686;2022-12-18T00:58:07;20.53;;;8.70;;
42662;SDS011;44330;51.360;6.686;2022-12-18T01:00:33;18.90;;;8.23;;
42662;SDS011;44330;51.360;6.686;2022-12-18T01:02:59;16.57;;;7.20;;
42662;SDS011;44330;51.360;6.686;2022-12-18T01:05:25;20.83;;;7.77;;
42662;SDS011;44330;51.360;6.686;2022-12-18T01:07:51;18.40;;;7.77;;
42662;SDS011;44330;51.360;6.686;2022-12-18T01:10:16;18.77;;;8.10;;
42662;SDS011;44330;51.360;6.686;2022-12-18T01:12:42;19.30;;;7.90;;
42662;SDS011;44330;51.360;6.686;2022-12-18T01:15:08;14.73;;;6.87;;
42662;SDS011;44330;51.360;6.686;2022-12-18T01:17:35;18.10;;;7.67;;
42662;SDS011;44330;51.360;6.686;2022-12-18T01:20:00;17.60;;;7.47;;
42662;SDS011;44330;51.360;6.686;2022-12-18T01:22:26;20.27;;;7.60;;
42662;SDS011;44330;51.360;6.686;2022-12-18T01:24:52;15.47;;;7.57;;
42662;SDS011;44330;51.360;6.686;2022-12-18T01:27:17;15.63;;;7.07;;
42662;SDS011;44330;51.360;6.686;2022-12-18T01:29:43;18.10;;;7.60;;
42662;SDS011;44330;51.360;6.686;2022-12-18T01:32:08;19.67;;;7.97;;
42662;SDS011;44330;51.360;6.686;2022-12-18T01:34:37;17.70;;;7.80;;
42662;SDS011;44330;51.360;6.686;2022-12-18T01:39:29;15.47;;;7.00;;
42662;SDS011;44330;51.360;6.686;2022-12-18T01:41:56;16.43;;;7.07;;
42662;SDS011;44330;51.360;6.686;2022-12-18T01:44:51;15.63;;;7.63;;
42662;SDS011;44330;51.360;6.686;2022-12-18T01:47:30;22.60;;;8.03;;
42662;SDS011;44330;51.360;6.686;2022-12-18T01:52:38;19.53;;;7.60;;
42662;SDS011;44330;51.360;6.686;2022-12-18T01:55:07;14.57;;;7.05;;
42662;SDS011;44330;51.360;6.686;2022-12-18T01:57:34;17.90;;;8.50;;
42662;SDS011;44330;51.360;6.686;2022-12-18T02:00:03;21.00;;;8.83;;
42662;SDS011;44330;51.360;6.686;2022-12-18T02:02:32;16.40;;;8.07;;
42662;SDS011;44330;51.360;6.686;2022-12-18T02:04:57;16.77;;;8.40;;
42662;SDS011;44330;51.360;6.686;2022-12-18T02:08:09;15.43;;;7.27;;
42662;SDS011;44330;51.360;6.686;2022-12-18T02:10:35;18.10;;;8.10;;
42662;SDS011;44330;51.360;6.686;2022-12-18T02:18:33;18.67;;;7.93;;
42662;SDS011;44330;51.360;6.686;2022-12-18T02:21:15;19.50;;;7.77;;
42662;SDS011;44330;51.360;6.686;2022-12-18T02:29:07;20.17;;;8.23;;
42662;SDS011;44330;51.360;6.686;2022-12-18T02:31:39;21.77;;;9.17;;
42662;SDS011;44330;51.360;6.686;2022-12-18T02:34:12;18.37;;;8.13;;
42662;SDS011;44330;51.360;6.686;2022-12-18T02:36:40;20.43;;;8.53;;
42662;SDS011;44330;51.360;6.686;2022-12-18T02:39:08;19.40;;;8.23;;
42662;SDS011;44330;51.360;6.686;2022-12-18T02:41:35;16.88;;;8.02;;
42662;SDS011;44330;51.360;6.686;2022-12-18T02:44:06;17.33;;;8.47;;
42662;SDS011;44330;51.360;6.686;2022-12-18T02:46:44;19.57;;;8.53;;
42662;SDS011;44330;51.360;6.686;2022-12-18T02:49:29;18.77;;;7.70;;
42662;SDS011;44330;51.360;6.686;2022-12-18T02:52:15;16.07;;;7.80;;
42662;SDS011;44330;51.360;6.686;2022-12-18T02:54:57;16.88;;;7.82;;
42662;SDS011;44330;51.360;6.686;2022-12-18T02:57:35;14.45;;;5.88;;
42662;SDS011;44330;51.360;6.686;2022-12-18T03:00:08;19.17;;;8.83;;
42662;SDS011;44330;51.360;6.686;2022-12-18T03:05:24;19.77;;;8.77;;
42662;SDS011;44330;51.360;6.686;2022-12-18T03:10:49;20.83;;;8.97;;
42662;SDS011;44330;51.360;6.686;2022-12-18T03:13:25;16.03;;;8.07;;
42662;SDS011;44330;51.360;6.686;2022-12-18T03:15:55;22.17;;;8.37;;
42662;SDS011;44330;51.360;6.686;2022-12-18T03:18:30;19.50;;;7.63;;
42662;SDS011;44330;51.360;6.686;2022-12-18T03:21:06;19.30;;;8.43;;
42662;SDS011;44330;51.360;6.686;2022-12-18T03:23:40;20.80;;;8.73;;
42662;SDS011;44330;51.360;6.686;2022-12-18T03:26:09;16.83;;;7.93;;
42662;SDS011;44330;51.360;6.686;2022-12-18T03:28:43;20.92;;;8.30;;
42662;SDS011;44330;51.360;6.686;2022-12-18T03:31:14;16.20;;;7.33;;
42662;SDS011;44330;51.360;6.686;2022-12-18T03:36:19;14.73;;;7.23;;
42662;SDS011;44330;51.360;6.686;2022-12-18T03:38:45;17.27;;;8.57;;
42662;SDS011;44330;51.360;6.686;2022-12-18T03:41:29;17.70;;;8.33;;
42662;SDS011;44330;51.360;6.686;2022-12-18T03:44:18;20.37;;;8.00;;
42662;SDS011;44330;51.360;6.686;2022-12-18T03:49:36;18.83;;;8.40;;
42662;SDS011;44330;51.360;6.686;2022-12-18T03:52:25;17.00;;;7.40;;
42662;SDS011;44330;51.360;6.686;2022-12-18T03:54:55;19.43;;;7.87;;
42662;SDS011;44330;51.360;6.686;2022-12-18T03:57:24;15.70;;;7.00;;
42662;SDS011;44330;51.360;6.686;2022-12-18T03:59:57;15.57;;;6.93;;
42662;SDS011;44330;51.360;6.686;2022-12-18T04:02:26;19.57;;;7.13;;
42662;SDS011;44330;51.360;6.686;2022-12-18T04:04:53;16.70;;;7.73;;
42662;SDS011;44330;51.360;6.686;2022-12-18T04:07:23;14.73;;;7.13;;
42662;SDS011;44330;51.360;6.686;2022-12-18T04:09:50;16.33;;;7.87;;
42662;SDS011;44330;51.360;6.686;2022-12-18T04:12:20;19.50;;;8.50;;
42662;SDS011;44330;51.360;6.686;2022-12-18T04:14:45;23.50;;;8.50;;
42662;SDS011;44330;51.360;6.686;2022-12-18T04:17:11;16.00;;;7.03;;
42662;SDS011;44330;51.360;6.686;2022-12-18T04:19:36;15.30;;;7.90;;
42662;SDS011;44330;51.360;6.686;2022-12-18T04:22:02;18.07;;;7.50;;
42662;SDS011;44330;51.360;6.686;2022-12-18T04:24:27;16.77;;;7.73;;
42662;SDS011;44330;51.360;6.686;2022-12-18T04:26:53;17.50;;;7.20;;
42662;SDS011;44330;51.360;6.686;2022-12-18T04:29:19;16.60;;;7.57;;
42662;SDS011;44330;51.360;6.686;2022-12-18T04:31:44;16.47;;;7.20;;
42662;SDS011;44330;51.360;6.686;2022-12-18T04:34:10;15.87;;;7.23;;
42662;SDS011;44330;51.360;6.686;2022-12-18T04:36:36;16.33;;;7.27;;
42662;SDS011;44330;51.360;6.686;2022-12-18T04:39:01;17.97;;;8.13;;
42662;SDS011;44330;51.360;6.686;2022-12-18T04:41:27;19.43;;;7.90;;
42662;SDS011;44330;51.360;6.686;2022-12-18T04:43:52;17.30;;;7.20;;
42662;SDS011;44330;51.360;6.686;2022-12-18T04:46:18;15.13;;;7.20;;
42662;SDS011;44330;51.360;6.686;2022-12-18T04:48:45;16.80;;;7.30;;
42662;SDS011;44330;51.360;6.686;2022-12-18T04:51:11;19.70;;;7.87;;
42662;SDS011;44330;51.360;6.686;2022-12-18T04:53:37;16.77;;;6.77;;
42662;SDS011;44330;51.360;6.686;2022-12-18T04:56:12;17.77;;;7.70;;
42662;SDS011;44330;51.360;6.686;2022-12-18T04:58:40;15.73;;;7.47;;
42662;SDS011;44330;51.360;6.686;2022-12-18T05:01:06;17.93;;;7.67;;
42662;SDS011;44330;51.360;6.686;2022-12-18T05:03:33;15.30;;;7.37;;
42662;SDS011;44330;51.360;6.686;2022-12-18T05:05:59;19.33;;;7.97;;
42662;SDS011;44330;51.360;6.686;2022-12-18T05:08:25;16.87;;;7.27;;
42662;SDS011;44330;51.360;6.686;2022-12-18T05:11:04;19.77;;;7.23;;
42662;SDS011;44330;51.360;6.686;2022-12-18T05:13:32;22.10;;;8.43;;
42662;SDS011;44330;51.360;6.686;2022-12-18T05:15:58;14.40;;;6.80;;
42662;SDS011;44330;51.360;6.686;2022-12-18T05:18:24;18.77;;;7.23;;
42662;SDS011;44330;51.360;6.686;2022-12-18T05:20:50;13.87;;;6.63;;
42662;SDS011;44330;51.360;6.686;2022-12-18T05:23:17;14.97;;;7.23;;
42662;SDS011;44330;51.360;6.686;2022-12-18T05:25:46;11.73;;;6.63;;
42662;SDS011;44330;51.360;6.686;2022-12-18T05:28:31;12.73;;;5.67;;
42662;SDS011;44330;51.360;6.686;2022-12-18T05:30:58;11.93;;;5.87;;
42662;SDS011;44330;51.360;6.686;2022-12-18T05:33:26;14.40;;;7.20;;
42662;SDS011;44330;51.360;6.686;2022-12-18T05:38:22;13.30;;;6.00;;
42662;SDS011;44330;51.360;6.686;2022-12-18T05:40:49;15.93;;;6.83;;
42662;SDS011;44330;51.360;6.686;2022-12-18T05:43:15;13.53;;;6.63;;
42662;SDS011;44330;51.360;6.686;2022-12-18T05:45:41;14.87;;;6.17;;
42662;SDS011;44330;51.360;6.686;2022-12-18T05:48:07;15.40;;;7.10;;
42662;SDS011;44330;51.360;6.686;2022-12-18T05:50:34;15.37;;;6.90;;
42662;SDS011;44330;51.360;6.686;2022-12-18T05:53:00;14.27;;;6.60;;
42662;SDS011;44330;51.360;6.686;2022-12-18T05:55:26;14.80;;;6.47;;
42662;SDS011;44330;51.360;6.686;2022-12-18T05:57:52;15.40;;;6.43;;
42662;SDS011;44330;51.360;6.686;2022-12-18T06:00:17;14.57;;;7.37;;
42662;SDS011;44330;51.360;6.686;2022-12-18T06:02:46;16.20;;;6.53;;
42662;SDS011;44330;51.360;6.686;2022-12-18T06:05:12;17.00;;;6.97;;
42662;SDS011;44330;51.360;6.686;2022-12-18T06:07:37;12.37;;;6.13;;
42662;SDS011;44330;51.360;6.686;2022-12-18T06:10:03;14.67;;;6.87;;
42662;SDS011;44330;51.360;6.686;2022-12-18T06:12:29;14.13;;;7.10;;
42662;SDS011;44330;51.360;6.686;2022-12-18T06:14:54;15.87;;;6.40;;
42662;SDS011;44330;51.360;6.686;2022-12-18T06:17:20;12.17;;;5.93;;
42662;SDS011;44330;51.360;6.686;2022-12-18T06:19:52;15.07;;;6.20;;
42662;SDS011;44330;51.360;6.686;2022-12-18T06:22:17;12.90;;;5.70;;
42662;SDS011;44330;51.360;6.686;2022-12-18T06:24:43;12.77;;;5.87;;
42662;SDS011;44330;51.360;6.686;2022-12-18T06:27:08;17.37;;;7.17;;
42662;SDS011;44330;51.360;6.686;2022-12-18T06:29:34;13.90;;;5.80;;
42662;SDS011;44330;51.360;6.686;2022-12-18T06:31:59;15.77;;;6.60;;
42662;SDS011;44330;51.360;6.686;2022-12-18T06:34:25;14.07;;;5.70;;
42662;SDS011;44330;51.360;6.686;2022-12-18T06:36:50;14.80;;;6.23;;
42662;SDS011;44330;51.360;6.686;2022-12-18T06:39:16;16.13;;;6.10;;
42662;SDS011;44330;51.360;6.686;2022-12-18T06:41:41;16.17;;;6.40;;
42662;SDS011;44330;51.360;6.686;2022-12-18T06:44:07;15.87;;;7.17;;
42662;SDS011;44330;51.360;6.686;2022-12-18T06:46:32;12.97;;;6.33;;
42662;SDS011;44330;51.360;6.686;2022-12-18T06:48:58;14.20;;;6.57;;
42662;SDS011;44330;51.360;6.686;2022-12-18T06:51:23;13.23;;;6.27;;
42662;SDS011;44330;51.360;6.686;2022-12-18T06:53:49;14.20;;;6.53;;
42662;SDS011;44330;51.360;6.686;2022-12-18T06:56:15;14.50;;;6.60;;
42662;SDS011;44330;51.360;6.686;2022-12-18T06:58:41;14.23;;;5.43;;
42662;SDS011;44330;51.360;6.686;2022-12-18T07:01:08;15.93;;;7.17;;
42662;SDS011;44330;51.360;6.686;2022-12-18T07:03:36;14.67;;;6.27;;
42662;SDS011;44330;51.360;6.686;2022-12-18T07:06:02;14.33;;;6.10;;
42662;SDS011;44330;51.360;6.686;2022-12-18T07:08:29;13.90;;;6.50;;
42662;SDS011;44330;51.360;6.686;2022-12-18T07:10:55;12.50;;;5.93;;
42662;SDS011;44330;51.360;6.686;2022-12-18T07:13:21;12.20;;;5.73;;
42662;SDS011;44330;51.360;6.686;2022-12-18T07:15:46;17.90;;;7.13;;
42662;SDS011;44330;51.360;6.686;2022-12-18T07:18:12;15.50;;;7.70;;
42662;SDS011;44330;51.360;6.686;2022-12-18T07:20:37;16.00;;;6.90;;
42662;SDS011;44330;51.360;6.686;2022-12-18T07:23:04;16.50;;;5.97;;
42662;SDS011;44330;51.360;6.686;2022-12-18T07:25:33;16.60;;;7.00;;
42662;SDS011;44330;51.360;6.686;2022-12-18T07:28:00;14.17;;;6.60;;
42662;SDS011;44330;51.360;6.686;2022-12-18T07:30:26;14.90;;;6.70;;
42662;SDS011;44330;51.360;6.686;2022-12-18T07:32:51;16.80;;;6.47;;
42662;SDS011;44330;51.360;6.686;2022-12-18T07:35:17;14.17;;;6.77;;
42662;SDS011;44330;51.360;6.686;2022-12-18T07:37:42;17.07;;;6.70;;
42662;SDS011;44330;51.360;6.686;2022-12-18T07:40:08;15.40;;;6.87;;
42662;SDS011;44330;51.360;6.686;2022-12-18T07:42:34;14.67;;;6.00;;
42662;SDS011;44330;51.360;6.686;2022-12-18T07:45:01;17.37;;;7.33;;
42662;SDS011;44330;51.360;6.686;2022-12-18T07:47:28;13.67;;;6.33;;
42662;SDS011;44330;51.360;6.686;2022-12-18T07:49:53;16.13;;;7.13;;
42662;SDS011;44330;51.360;6.686;2022-12-18T07:52:19;17.83;;;6.67;;
42662;SDS011;44330;51.360;6.686;2022-12-18T07:54:45;15.23;;;6.60;;
42662;SDS011;44330;51.360;6.686;2022-12-18T07:57:13;16.35;;;6.55;;
42662;SDS011;44330;51.360;6.686;2022-12-18T07:59:39;16.43;;;6.53;;
42662;SDS011;44330;51.360;6.686;2022-12-18T08:02:04;15.97;;;6.90;;
42662;SDS011;44330;51.360;6.686;2022-12-18T08:04:30;16.47;;;6.20;;
42662;SDS011;44330;51.360;6.686;2022-12-18T08:06:56;15.73;;;7.23;;
42662;SDS011;44330;51.360;6.686;2022-12-18T08:09:21;13.37;;;6.30;;
42662;SDS011;44330;51.360;6.686;2022-12-18T08:11:47;16.67;;;7.53;;
42662;SDS011;44330;51.360;6.686;2022-12-18T08:14:13;16.43;;;6.97;;
42662;SDS011;44330;51.360;6.686;2022-12-18T08:19:09;12.60;;;5.15;;
42662;SDS011;44330;51.360;6.686;2022-12-18T08:21:35;15.50;;;6.37;;
42662;SDS011;44330;51.360;6.686;2022-12-18T08:24:01;13.60;;;6.67;;
42662;SDS011;44330;51.360;6.686;2022-12-18T08:26:27;16.23;;;6.47;;
42662;SDS011;44330;51.360;6.686;2022-12-18T08:28:55;13.37;;;6.10;;
42662;SDS011;44330;51.360;6.686;2022-12-18T08:31:22;15.23;;;7.07;;
42662;SDS011;44330;51.360;6.686;2022-12-18T08:33:50;17.77;;;7.50;;
42662;SDS011;44330;51.360;6.686;2022-12-18T08:36:17;13.53;;;6.03;;
42662;SDS011;44330;51.360;6.686;2022-12-18T08:38:44;16.60;;;7.13;;
42662;SDS011;44330;51.360;6.686;2022-12-18T08:41:11;17.83;;;8.17;;
42662;SDS011;44330;51.360;6.686;2022-12-18T08:43:38;17.73;;;7.75;;
42662;SDS011;44330;51.360;6.686;2022-12-18T08:46:23;16.85;;;7.70;;
42662;SDS011;44330;51.360;6.686;2022-12-18T08:48:50;15.80;;;6.93;;
42662;SDS011;44330;51.360;6.686;2022-12-18T08:51:16;14.80;;;7.03;;
42662;SDS011;44330;51.360;6.686;2022-12-18T08:53:42;15.73;;;6.80;;
42662;SDS011;44330;51.360;6.686;2022-12-18T08:56:09;13.07;;;6.10;;
42662;SDS011;44330;51.360;6.686;2022-12-18T08:58:35;13.67;;;7.17;;
42662;SDS011;44330;51.360;6.686;2022-12-18T09:01:01;15.90;;;7.13;;
42662;SDS011;44330;51.360;6.686;2022-12-18T09:03:28;13.13;;;6.63;;
42662;SDS011;44330;51.360;6.686;2022-12-18T09:05:54;15.85;;;6.68;;
42662;SDS011;44330;51.360;6.686;2022-12-18T09:08:20;15.55;;;7.40;;
42662;SDS011;44330;51.360;6.686;2022-12-18T09:10:46;19.92;;;8.88;;
42662;SDS011;44330;51.360;6.686;2022-12-18T09:13:13;13.57;;;7.00;;
42662;SDS011;44330;51.360;6.686;2022-12-18T09:15:43;14.27;;;6.60;;
42662;SDS011;44330;51.360;6.686;2022-12-18T09:18:10;16.08;;;6.85;;
42662;SDS011;44330;51.360;6.686;2022-12-18T09:20:37;19.52;;;8.05;;
42662;SDS011;44330;51.360;6.686;2022-12-18T09:23:03;20.52;;;8.00;;
42662;SDS011;44330;51.360;6.686;2022-12-18T09:25:29;14.07;;;6.50;;
42662;SDS011;44330;51.360;6.686;2022-12-18T09:27:59;12.38;;;6.60;;
42662;SDS011;44330;51.360;6.686;2022-12-18T09:30:25;16.20;;;6.75;;
42662;SDS011;44330;51.360;6.686;2022-12-18T09:32:51;17.05;;;7.28;;
42662;SDS011;44330;51.360;6.686;2022-12-18T09:35:17;20.27;;;7.88;;
42662;SDS011;44330;51.360;6.686;2022-12-18T09:37:42;12.93;;;6.35;;
42662;SDS011;44330;51.360;6.686;2022-12-18T09:40:18;14.45;;;6.90;;
42662;SDS011;44330;51.360;6.686;2022-12-18T09:42:47;14.27;;;6.80;;
42662;SDS011;44330;51.360;6.686;2022-12-18T09:45:20;16.70;;;7.15;;
42662;SDS011;44330;51.360;6.686;2022-12-18T09:47:46;14.75;;;7.18;;
42662;SDS011;44330;51.360;6.686;2022-12-18T09:50:29;14.77;;;6.80;;
42662;SDS011;44330;51.360;6.686;2022-12-18T09:52:59;16.60;;;7.35;;
42662;SDS011;44330;51.360;6.686;2022-12-18T09:58:00;11.25;;;5.47;;
42662;SDS011;44330;51.360;6.686;2022-12-18T10:00:31;13.38;;;6.85;;
42662;SDS011;44330;51.360;6.686;2022-12-18T10:03:00;16.70;;;6.90;;
42662;SDS011;44330;51.360;6.686;2022-12-18T10:08:08;14.38;;;7.03;;
42662;SDS011;44330;51.360;6.686;2022-12-18T10:10:46;12.65;;;6.70;;
42662;SDS011;44330;51.360;6.686;2022-12-18T10:13:23;17.15;;;6.97;;
42662;SDS011;44330;51.360;6.686;2022-12-18T10:16:08;10.93;;;4.95;;
42662;SDS011;44330;51.360;6.686;2022-12-18T10:21:31;18.17;;;7.30;;
42662;SDS011;44330;51.360;6.686;2022-12-18T10:24:16;15.70;;;7.13;;
42662;SDS011;44330;51.360;6.686;2022-12-18T10:26:48;12.60;;;7.07;;
42662;SDS011;44330;51.360;6.686;2022-12-18T10:29:14;17.35;;;7.22;;
42662;SDS011;44330;51.360;6.686;2022-12-18T10:31:41;13.98;;;7.00;;
42662;SDS011;44330;51.360;6.686;2022-12-18T10:34:13;13.68;;;7.15;;
42662;SDS011;44330;51.360;6.686;2022-12-18T10:36:38;16.95;;;7.60;;
42662;SDS011;44330;51.360;6.686;2022-12-18T10:39:25;15.43;;;7.13;;
42662;SDS011;44330;51.360;6.686;2022-12-18T10:41:51;16.38;;;6.80;;
42662;SDS011;44330;51.360;6.686;2022-12-18T10:44:18;17.17;;;7.28;;
42662;SDS011;44330;51.360;6.686;2022-12-18T10:46:54;17.88;;;7.72;;
42662;SDS011;44330;51.360;6.686;2022-12-18T10:49:31;17.73;;;7.80;;
42662;SDS011;44330;51.360;6.686;2022-12-18T10:54:51;12.45;;;7.03;;
42662;SDS011;44330;51.360;6.686;2022-12-18T10:59:52;15.77;;;7.30;;
42662;SDS011;44330;51.360;6.686;2022-12-18T11:02:27;22.02;;;7.72;;
42662;SDS011;44330;51.360;6.686;2022-12-18T11:05:03;17.92;;;7.50;;
42662;SDS011;44330;51.360;6.686;2022-12-18T11:07:49;13.10;;;6.70;;
42662;SDS011;44330;51.360;6.686;2022-12-18T11:10:19;14.73;;;7.30;;
42662;SDS011;44330;51.360;6.686;2022-12-18T11:12:46;17.02;;;7.57;;
42662;SDS011;44330;51.360;6.686;2022-12-18T11:15:14;14.18;;;6.80;;
42662;SDS011;44330;51.360;6.686;2022-12-18T11:17:45;15.77;;;7.13;;
42662;SDS011;44330;51.360;6.686;2022-12-18T11:20:57;17.73;;;8.10;;
42662;SDS011;44330;51.360;6.686;2022-12-18T11:23:05;16.20;;;7.85;;
42662;SDS011;44330;51.360;6.686;2022-12-18T11:25:37;16.27;;;7.30;;
42662;SDS011;44330;51.360;6.686;2022-12-18T11:28:04;17.45;;;7.82;;
42662;SDS011;44330;51.360;6.686;2022-12-18T11:30:48;15.65;;;7.25;;
42662;SDS011;44330;51.360;6.686;2022-12-18T11:35:46;16.30;;;8.27;;
42662;SDS011;44330;51.360;6.686;2022-12-18T11:46:32;18.85;;;8.27;;
42662;SDS011;44330;51.360;6.686;2022-12-18T11:49:03;16.00;;;8.13;;
42662;SDS011;44330;51.360;6.686;2022-12-18T11:51:41;15.63;;;7.50;;
42662;SDS011;44330;51.360;6.686;2022-12-18T11:54:13;20.92;;;8.43;;
42662;SDS011;44330;51.360;6.686;2022-12-18T11:56:44;18.58;;;8.23;;
42662;SDS011;44330;51.360;6.686;2022-12-18T11:59:29;19.55;;;7.70;;
42662;SDS011;44330;51.360;6.686;2022-12-18T12:05:22;20.17;;;8.63;;
42662;SDS011;44330;51.360;6.686;2022-12-18T12:11:01;17.65;;;8.60;;
42662;SDS011;44330;51.360;6.686;2022-12-18T12:19:45;23.20;;;8.45;;
42662;SDS011;44330;51.360;6.686;2022-12-18T12:22:27;20.45;;;8.73;;
42662;SDS011;44330;51.360;6.686;2022-12-18T12:27:52;21.60;;;8.75;;
42662;SDS011;44330;51.360;6.686;2022-12-18T12:30:35;21.83;;;8.82;;
42662;SDS011;44330;51.360;6.686;2022-12-18T12:39:27;18.92;;;9.32;;
42662;SDS011;44330;51.360;6.686;2022-12-18T12:41:59;19.42;;;9.35;;
42662;SDS011;44330;51.360;6.686;2022-12-18T12:44:47;21.73;;;9.30;;
42662;SDS011;44330;51.360;6.686;2022-12-18T12:47:18;33.38;;;10.95;;
42662;SDS011;44330;51.360;6.686;2022-12-18T12:49:49;23.70;;;10.02;;
42662;SDS011;44330;51.360;6.686;2022-12-18T12:52:17;19.17;;;9.85;;
42662;SDS011;44330;51.360;6.686;2022-12-18T12:54:52;19.13;;;9.57;;
42662;SDS011;44330;51.360;6.686;2022-12-18T12:57:33;21.35;;;10.25;;
42662;SDS011;44330;51.360;6.686;2022-12-18T13:08:08;22.40;;;10.35;;
42662;SDS011;44330;51.360;6.686;2022-12-18T13:13:07;21.10;;;9.95;;
42662;SDS011;44330;51.360;6.686;2022-12-18T13:15:41;25.55;;;10.98;;
42662;SDS011;44330;51.360;6.686;2022-12-18T13:20:40;26.33;;;10.27;;
42662;SDS011;44330;51.360;6.686;2022-12-18T13:23:28;23.27;;;10.13;;
42662;SDS011;44330;51.360;6.686;2022-12-18T13:25:57;31.77;;;11.13;;
42662;SDS011;44330;51.360;6.686;2022-12-18T13:31:01;21.42;;;10.20;;
42662;SDS011;44330;51.360;6.686;2022-12-18T13:38:47;23.33;;;10.85;;
42662;SDS011;44330;51.360;6.686;2022-12-18T13:41:32;23.50;;;11.45;;
42662;SDS011;44330;51.360;6.686;2022-12-18T13:44:11;23.98;;;12.00;;
42662;SDS011;44330;51.360;6.686;2022-12-18T13:49:24;26.83;;;10.57;;
42662;SDS011;44330;51.360;6.686;2022-12-18T13:52:14;29.20;;;12.05;;
42662;SDS011;44330;51.360;6.686;2022-12-18T13:54:43;26.55;;;12.00;;
42662;SDS011;44330;51.360;6.686;2022-12-18T13:59:54;23.92;;;11.88;;
42662;SDS011;44330;51.360;6.686;2022-12-18T14:02:22;24.33;;;11.95;;
42662;SDS011;44330;51.360;6.686;2022-12-18T14:04:50;27.45;;;11.60;;
42662;SDS011;44330;51.360;6.686;2022-12-18T14:07:17;22.58;;;11.43;;
42662;SDS011;44330;51.360;6.686;2022-12-18T14:10:17;22.63;;;9.30;;
42662;SDS011;44330;51.360;6.686;2022-12-18T14:12:38;22.40;;;11.18;;
42662;SDS011;44330;51.360;6.686;2022-12-18T14:17:51;26.58;;;13.02;;
42662;SDS011;44330;51.360;6.686;2022-12-18T14:20:25;31.50;;;12.18;;
42662;SDS011;44330;51.360;6.686;2022-12-18T14:22:51;27.27;;;11.52;;
42662;SDS011;44330;51.360;6.686;2022-12-18T14:27:46;30.25;;;12.55;;
42662;SDS011;44330;51.360;6.686;2022-12-18T14:30:39;25.90;;;12.20;;
42662;SDS011;44330;51.360;6.686;2022-12-18T14:33:09;30.10;;;11.85;;
42662;SDS011;44330;51.360;6.686;2022-12-18T14:35:52;25.95;;;12.40;;
42662;SDS011;44330;51.360;6.686;2022-12-18T14:41:02;26.05;;;11.88;;
42662;SDS011;44330;51.360;6.686;2022-12-18T14:43:35;24.98;;;12.05;;
42662;SDS011;44330;51.360;6.686;2022-12-18T14:46:03;28.85;;;13.40;;
42662;SDS011;44330;51.360;6.686;2022-12-18T14:48:49;27.90;;;12.48;;
42662;SDS011;44330;51.360;6.686;2022-12-18T14:51:19;28.00;;;12.93;;
42662;SDS011;44330;51.360;6.686;2022-12-18T14:53:56;27.27;;;12.30;;
42662;SDS011;44330;51.360;6.686;2022-12-18T14:56:33;27.00;;;12.48;;
42662;SDS011;44330;51.360;6.686;2022-12-18T14:59:04;25.73;;;11.95;;
42662;SDS011;44330;51.360;6.686;2022-12-18T15:01:49;32.80;;;12.43;;
42662;SDS011;44330;51.360;6.686;2022-12-18T15:04:42;25.60;;;11.15;;
42662;SDS011;44330;51.360;6.686;2022-12-18T15:07:13;27.08;;;12.32;;
42662;SDS011;44330;51.360;6.686;2022-12-18T15:12:48;25.67;;;12.10;;
42662;SDS011;44330;51.360;6.686;2022-12-18T15:18:01;29.55;;;13.18;;
42662;SDS011;44330;51.360;6.686;2022-12-18T15:20:40;26.83;;;13.73;;
42662;SDS011;44330;51.360;6.686;2022-12-18T15:23:15;30.27;;;13.65;;
42662;SDS011;44330;51.360;6.686;2022-12-18T15:25:46;21.33;;;10.10;;
42662;SDS011;44330;51.360;6.686;2022-12-18T15:28:22;31.70;;;13.35;;
42662;SDS011;44330;51.360;6.686;2022-12-18T15:30:59;27.88;;;12.95;;
42662;SDS011;44330;51.360;6.686;2022-12-18T15:33:30;28.80;;;13.93;;
42662;SDS011;44330;51.360;6.686;2022-12-18T15:35:58;29.38;;;14.40;;
42662;SDS011;44330;51.360;6.686;2022-12-18T15:38:25;34.95;;;13.98;;
42662;SDS011;44330;51.360;6.686;2022-12-18T15:40:52;31.58;;;14.32;;
42662;SDS011;44330;51.360;6.686;2022-12-18T15:43:19;31.27;;;13.88;;
42662;SDS011;44330;51.360;6.686;2022-12-18T15:45:59;29.92;;;13.40;;
42662;SDS011;44330;51.360;6.686;2022-12-18T15:48:25;32.03;;;14.25;;
42662;SDS011;44330;51.360;6.686;2022-12-18T15:50:51;32.92;;;15.00;;
42662;SDS011;44330;51.360;6.686;2022-12-18T15:53:21;37.83;;;15.10;;
42662;SDS011;44330;51.360;6.686;2022-12-18T15:55:52;33.95;;;14.05;;
42662;SDS011;44330;51.360;6.686;2022-12-18T15:58:37;33.13;;;14.32;;
42662;SDS011;44330;51.360;6.686;2022-12-18T16:01:02;31.40;;;14.43;;
42662;SDS011;44330;51.360;6.686;2022-12-18T16:03:28;35.75;;;15.63;;
42662;SDS011;44330;51.360;6.686;2022-12-18T16:05:54;32.72;;;15.20;;
42662;SDS011;44330;51.360;6.686;2022-12-18T16:08:19;29.75;;;14.15;;
42662;SDS011;44330;51.360;6.686;2022-12-18T16:10:45;34.03;;;15.02;;
42662;SDS011;44330;51.360;6.686;2022-12-18T16:13:11;29.52;;;14.23;;
42662;SDS011;44330;51.360;6.686;2022-12-18T16:15:39;36.30;;;14.88;;
42662;SDS011;44330;51.360;6.686;2022-12-18T16:18:05;35.22;;;14.68;;
42662;SDS011;44330;51.360;6.686;2022-12-18T16:20:30;35.65;;;16.38;;
42662;SDS011;44330;51.360;6.686;2022-12-18T16:22:56;35.25;;;15.63;;
42662;SDS011;44330;51.360;6.686;2022-12-18T16:25:22;39.00;;;16.02;;
42662;SDS011;44330;51.360;6.686;2022-12-18T16:27:50;25.58;;;12.18;;
42662;SDS011;44330;51.360;6.686;2022-12-18T16:30:17;34.58;;;15.15;;
42662;SDS011;44330;51.360;6.686;2022-12-18T16:32:45;29.73;;;15.38;;
42662;SDS011;44330;51.360;6.686;2022-12-18T16:35:11;33.25;;;14.98;;
42662;SDS011;44330;51.360;6.686;2022-12-18T16:37:38;38.28;;;16.77;;
42662;SDS011;44330;51.360;6.686;2022-12-18T16:40:05;37.72;;;15.48;;
42662;SDS011;44330;51.360;6.686;2022-12-18T16:42:42;33.53;;;15.25;;
42662;SDS011;44330;51.360;6.686;2022-12-18T16:45:09;35.45;;;15.45;;
42662;SDS011;44330;51.360;6.686;2022-12-18T16:47:38;29.25;;;12.05;;